Time;durP1;ratioP1;P1;durP2;ratioP2;P2;SDS_P1;SDS_P2;PMS_P1;PMS_P2;Temp;Humidity;BMP_temperature;BMP_pressure;BME280_temperature;BME280_humidity;BME280_pressure;Samples;Min_cycle;Max_cycle;Signal;HPM_P1;HPM_P2
2023/01/02 00:00:13;;;;;;;0.20;0.20;;;10.60;98.00;;;;;;5071480;28;20429;-67
2023/01/02 00:02:38;;;;;;;0.20;0.20;;;10.60;99.90;;;;;;5071263;28;20028;-67
2023/01/02 00:05:04;;;;;;;0.20;0.20;;;10.60;99.90;;;;;;5069885;28;20035;-66
2023/01/02 00:07:30;;;;;;;0.45;0.45;;;10.60;99.90;;;;;;5070681;28;20385;-66
2023/01/02 00:09:56;;;;;;;0.30;0.30;;;10.50;99.90;;;;;;5071349;28;20477;-67
2023/01/02 00:12:21;;;;;;;0.20;0.20;;;10.40;99.90;;;;;;5071062;28;20036;-67
2023/01/02 00:14:47;;;;;;;0.22;0.22;;;10.40;99.90;;;;;;5071260;28;20115;-67
2023/01/02 00:17:13;;;;;;;0.30;0.30;;;10.40;99.90;;;;;;5071215;28;20028;-67
2023/01/02 00:19:38;;;;;;;0.30;0.30;;;10.40;99.90;;;;;;5071237;28;20028;-67
2023/01/02 00:22:04;;;;;;;0.30;0.30;;;10.40;99.90;;;;;;5070945;28;20446;-66
2023/01/02 00:24:30;;;;;;;1.40;1.08;;;10.40;99.90;;;;;;5070982;28;20497;-67
2023/01/02 00:26:55;;;;;;;0.25;0.25;;;10.40;99.90;;;;;;5071015;28;20484;-67
2023/01/02 00:29:21;;;;;;;0.20;0.20;;;10.40;99.90;;;;;;5070966;28;20388;-67
2023/01/02 00:31:46;;;;;;;0.40;0.40;;;10.40;99.90;;;;;;5070916;28;20485;-67
2023/01/02 00:34:12;;;;;;;0.52;0.52;;;10.40;99.90;;;;;;5070949;28;20376;-67
2023/01/02 00:36:38;;;;;;;0.30;0.30;;;10.40;99.90;;;;;;5071089;28;20483;-66
2023/01/02 00:39:03;;;;;;;0.20;0.20;;;10.40;99.90;;;;;;5070907;28;20024;-67
2023/01/02 00:41:29;;;;;;;0.20;0.20;;;10.30;99.90;;;;;;5069781;28;20027;-67
2023/01/02 00:43:55;;;;;;;0.30;0.30;;;10.30;99.90;;;;;;5070620;28;20119;-66
2023/01/02 00:46:21;;;;;;;0.20;0.20;;;10.30;99.90;;;;;;5070744;28;20504;-67
2023/01/02 00:48:46;;;;;;;0.20;0.20;;;10.20;99.90;;;;;;5070832;28;20025;-66
2023/01/02 00:51:12;;;;;;;0.30;0.30;;;10.20;99.90;;;;;;5070714;28;20025;-66
2023/01/02 00:53:38;;;;;;;0.20;0.20;;;10.20;99.90;;;;;;5070874;28;20033;-66
2023/01/02 00:56:03;;;;;;;2.58;1.95;;;10.10;99.90;;;;;;5070597;28;20086;-66
2023/01/02 00:58:29;;;;;;;3.75;1.85;;;10.20;99.90;;;;;;5070756;28;20095;-67
2023/01/02 01:00:55;;;;;;;0.35;0.35;;;10.10;99.90;;;;;;5070681;28;20052;-67
2023/01/02 01:03:20;;;;;;;0.30;0.30;;;10.10;99.90;;;;;;5070478;28;20033;-66
2023/01/02 01:05:46;;;;;;;0.20;0.20;;;10.00;99.90;;;;;;5070417;28;20028;-66
2023/01/02 01:08:12;;;;;;;0.30;0.30;;;10.00;99.90;;;;;;5069706;28;20024;-67
2023/01/02 01:10:38;;;;;;;0.20;0.20;;;9.90;99.90;;;;;;5070801;28;20070;-66
2023/01/02 01:13:04;;;;;;;0.30;0.30;;;9.90;99.90;;;;;;5072401;28;20044;-67
2023/01/02 01:15:31;;;;;;;0.20;0.20;;;9.90;99.90;;;;;;5072743;28;20021;-67
2023/01/02 01:17:57;;;;;;;0.30;0.30;;;9.90;99.90;;;;;;5072839;28;20028;-67
2023/01/02 01:20:23;;;;;;;0.30;0.30;;;9.90;99.90;;;;;;5074108;28;20044;-67
2023/01/02 01:22:49;;;;;;;0.30;0.30;;;9.90;99.90;;;;;;5074430;28;20112;-66
2023/01/02 01:25:14;;;;;;;0.30;0.30;;;9.90;99.90;;;;;;5074238;28;20047;-67
2023/01/02 01:27:40;;;;;;;8.25;3.60;;;9.90;99.90;;;;;;5072825;28;20481;-67
2023/01/02 01:30:06;;;;;;;0.30;0.30;;;9.90;99.90;;;;;;5073924;28;20388;-67
2023/01/02 01:32:33;;;;;;;0.28;0.28;;;9.90;99.90;;;;;;5074238;28;20020;-66
2023/01/02 01:34:59;;;;;;;0.25;0.25;;;9.90;99.90;;;;;;5074019;28;20025;-66
2023/01/02 01:37:24;;;;;;;0.30;0.30;;;9.90;99.90;;;;;;5073987;28;20024;-66
2023/01/02 01:39:50;;;;;;;0.30;0.30;;;9.90;99.90;;;;;;5073728;28;20064;-67
2023/01/02 01:42:17;;;;;;;0.73;0.73;;;9.90;99.90;;;;;;5073895;28;20381;-67
2023/01/02 01:44:47;;;;;;;0.25;0.25;;;9.90;99.90;;;;;;5073917;28;20042;-67
2023/01/02 01:47:44;;;;;;;0.95;0.95;;;9.90;99.90;;;;;;5073999;28;20086;-67
2023/01/02 01:50:12;;;;;;;0.20;0.20;;;9.90;99.90;;;;;;5073575;28;20024;-66
2023/01/02 01:52:44;;;;;;;0.30;0.30;;;9.90;99.90;;;;;;5073752;28;20027;-67
2023/01/02 01:55:15;;;;;;;0.88;0.88;;;10.00;99.90;;;;;;5073786;28;20056;-67
2023/01/02 01:57:56;;;;;;;0.30;0.30;;;9.90;99.90;;;;;;5072292;28;20033;-66
2023/01/02 02:00:21;;;;;;;0.30;0.30;;;9.90;99.90;;;;;;5073648;28;20012;-66
2023/01/02 02:02:50;;;;;;;0.20;0.20;;;10.00;99.90;;;;;;5073511;28;20332;-67
2023/01/02 02:05:20;;;;;;;0.28;0.28;;;10.00;99.90;;;;;;5073356;28;20083;-65
2023/01/02 02:08:16;;;;;;;0.20;0.20;;;10.00;99.90;;;;;;5073366;28;20028;-66
2023/01/02 02:10:42;;;;;;;0.30;0.30;;;10.00;99.90;;;;;;5073429;28;20048;-66
2023/01/02 02:13:07;;;;;;;0.30;0.30;;;10.00;99.90;;;;;;5073365;28;20448;-66
2023/01/02 02:15:56;;;;;;;0.28;0.28;;;10.10;99.90;;;;;;5073283;28;20024;-67
2023/01/02 02:18:25;;;;;;;0.30;0.30;;;10.10;99.90;;;;;;5073440;28;20028;-67
2023/01/02 02:21:03;;;;;;;0.20;0.20;;;10.10;99.90;;;;;;5073345;28;20060;-66
2023/01/02 02:23:53;;;;;;;0.30;0.30;;;10.20;99.90;;;;;;5073089;28;20016;-66
2023/01/02 02:27:01;;;;;;;0.30;0.30;;;10.30;99.90;;;;;;5073081;28;20032;-66
2023/01/02 02:29:44;;;;;;;0.30;0.30;;;10.40;99.90;;;;;;5057994;28;20450;-66
2023/01/02 02:32:17;;;;;;;0.30;0.30;;;10.50;99.90;;;;;;5072907;28;20081;-66
2023/01/02 02:35:21;;;;;;;0.30;0.30;;;10.50;99.90;;;;;;5072729;28;20056;-66
2023/01/02 02:38:11;;;;;;;0.30;0.30;;;10.60;99.90;;;;;;5072871;28;20025;-66
2023/01/02 02:40:47;;;;;;;0.30;0.30;;;10.60;99.90;;;;;;5072734;28;20039;-66
2023/01/02 02:43:52;;;;;;;0.20;0.20;;;10.60;99.90;;;;;;5072583;28;20025;-66
2023/01/02 02:46:36;;;;;;;0.30;0.30;;;10.60;99.90;;;;;;5072637;28;20028;-65
2023/01/02 02:49:27;;;;;;;0.20;0.20;;;10.60;99.90;;;;;;5072730;28;20152;-66
2023/01/02 02:52:02;;;;;;;0.30;0.30;;;10.50;99.90;;;;;;5050892;28;20028;-66
2023/01/02 02:54:52;;;;;;;0.20;0.20;;;10.50;99.90;;;;;;5072376;28;20032;-65
2023/01/02 02:57:19;;;;;;;0.30;0.30;;;10.50;99.90;;;;;;5072506;28;20052;-66
2023/01/02 02:59:45;;;;;;;0.30;0.30;;;10.40;99.90;;;;;;5072382;28;20525;-65
2023/01/02 03:02:16;;;;;;;0.20;0.20;;;10.40;99.90;;;;;;5072612;28;20032;-66
2023/01/02 03:04:45;;;;;;;0.20;0.20;;;10.40;99.90;;;;;;5072050;28;20111;-66
2023/01/02 03:07:30;;;;;;;2.05;1.95;;;10.30;99.90;;;;;;5072191;28;20025;-67
2023/01/02 03:10:22;;;;;;;0.20;0.20;;;10.30;99.90;;;;;;5072168;28;20085;-65
2023/01/02 03:13:08;;;;;;;0.30;0.30;;;10.30;99.90;;;;;;5074119;28;20036;-66
2023/01/02 03:15:44;;;;;;;0.50;0.50;;;10.40;99.90;;;;;;5073876;28;20265;-66
2023/01/02 03:18:40;;;;;;;0.20;0.20;;;10.30;99.90;;;;;;5072823;28;20025;-66
2023/01/02 03:21:20;;;;;;;0.22;0.22;;;10.40;99.90;;;;;;5071779;28;20461;-66
2023/01/02 03:23:48;;;;;;;0.28;0.28;;;10.40;99.90;;;;;;5071995;28;20028;-67
2023/01/02 03:26:24;;;;;;;0.30;0.30;;;10.50;99.90;;;;;;5071878;28;20024;-65
2023/01/02 03:28:56;;;;;;;0.30;0.30;;;10.50;99.90;;;;;;5071796;28;20051;-66
2023/01/02 03:31:24;;;;;;;;;;;10.50;99.90;;;;;;5072299;28;20513;-66
2023/01/02 03:34:00;;;;;;;0.30;0.30;;;10.50;99.90;;;;;;5071835;28;19904;-65
2023/01/02 03:36:28;;;;;;;0.30;0.30;;;10.50;99.90;;;;;;5071650;28;20017;-66
2023/01/02 03:39:08;;;;;;;0.28;0.28;;;10.50;99.90;;;;;;5071711;28;20032;-65
2023/01/02 03:41:42;;;;;;;0.20;0.20;;;10.40;99.90;;;;;;5070672;28;20558;-67
2023/01/02 03:44:10;;;;;;;0.30;0.30;;;10.50;99.30;;;;;;5071531;28;20074;-67
2023/01/02 03:47:01;;;;;;;0.20;0.20;;;10.50;93.40;;;;;;5070380;28;20032;-67
2023/01/02 03:49:38;;;;;;;0.20;0.20;;;10.50;70.10;;;;;;5071592;28;20033;-66
2023/01/02 03:52:04;;;;;;;0.22;0.22;;;10.60;53.60;;;;;;5071613;28;20477;-67
2023/01/02 03:54:30;;;;;;;0.30;0.30;;;10.60;44.10;;;;;;5071484;28;20116;-67
2023/01/02 03:57:08;;;;;;;0.20;0.20;;;10.70;38.20;;;;;;5071549;28;20028;-65
2023/01/02 03:59:38;;;;;;;0.20;0.20;;;10.70;19.00;;;;;;5071441;28;20036;-67
2023/01/02 04:02:15;;;;;;;0.20;0.20;;;10.80;1.00;;;;;;5071464;28;20021;-66
2023/01/02 04:04:57;;;;;;;0.22;0.22;;;10.80;1.00;;;;;;5071259;28;20082;-67
2023/01/02 04:07:37;;;;;;;0.20;0.20;;;10.80;1.00;;;;;;5071331;28;20086;-67
2023/01/02 04:10:05;;;;;;;0.20;0.20;;;10.90;1.00;;;;;;5071325;28;20050;-67
2023/01/02 04:12:34;;;;;;;0.22;0.22;;;10.90;1.00;;;;;;5071142;28;20040;-67
2023/01/02 04:15:07;;;;;;;0.30;0.30;;;11.00;1.00;;;;;;5071357;28;20029;-67
2023/01/02 04:17:40;;;;;;;0.30;0.30;;;11.10;1.00;;;;;;5071590;28;20093;-67
2023/01/02 04:20:10;;;;;;;0.28;0.28;;;11.10;1.00;;;;;;5071184;28;20028;-66
2023/01/02 04:22:40;;;;;;;0.30;0.30;;;11.10;1.00;;;;;;5071152;28;20473;-66
2023/01/02 04:25:12;;;;;;;0.30;0.30;;;11.20;1.00;;;;;;5070971;28;20401;-66
2023/01/02 04:27:47;;;;;;;0.20;0.20;;;11.20;99.90;;;;;;5071015;28;20024;-66
2023/01/02 04:30:14;;;;;;;0.30;0.30;;;11.20;99.90;;;;;;5070990;28;20090;-67
2023/01/02 04:32:44;;;;;;;0.20;0.20;;;11.20;99.90;;;;;;5070987;28;21117;-66
2023/01/02 04:35:17;;;;;;;0.20;0.20;;;11.20;99.90;;;;;;5070903;28;20032;-66
2023/01/02 04:37:43;;;;;;;0.20;0.20;;;11.20;99.90;;;;;;5070978;28;20032;-66
2023/01/02 04:40:26;;;;;;;0.28;0.28;;;11.20;99.90;;;;;;5071180;28;20048;-66
2023/01/02 04:42:51;;;;;;;0.30;0.30;;;11.20;99.90;;;;;;5070925;28;20021;-66
2023/01/02 04:45:17;;;;;;;0.30;0.30;;;11.20;99.90;;;;;;5070867;28;20032;-66
2023/01/02 04:47:43;;;;;;;0.20;0.20;;;11.30;99.90;;;;;;5070726;28;20021;-67
2023/01/02 04:50:09;;;;;;;0.20;0.20;;;11.30;99.90;;;;;;5070923;28;20471;-65
2023/01/02 04:52:35;;;;;;;0.20;0.20;;;11.30;99.90;;;;;;5072010;28;20358;-67
2023/01/02 04:55:01;;;;;;;0.20;0.20;;;11.40;99.90;;;;;;5074770;28;20480;-67
2023/01/02 04:57:27;;;;;;;0.20;0.20;;;11.40;99.90;;;;;;5074728;28;20056;-67
2023/01/02 04:59:52;;;;;;;0.20;0.20;;;11.40;99.90;;;;;;5073470;28;20387;-66
2023/01/02 05:02:18;;;;;;;0.20;0.20;;;11.50;99.90;;;;;;5074831;28;20059;-66
2023/01/02 05:04:44;;;;;;;0.20;0.20;;;11.50;99.90;;;;;;5074388;28;20043;-66
2023/01/02 05:07:10;;;;;;;0.20;0.20;;;11.50;99.90;;;;;;5074803;28;20052;-66
2023/01/02 05:09:35;;;;;;;0.20;0.20;;;11.60;99.90;;;;;;5074303;28;20036;-67
2023/01/02 05:12:01;;;;;;;0.25;0.25;;;11.60;99.90;;;;;;5074321;28;20091;-67
2023/01/02 05:14:29;;;;;;;0.30;0.30;;;11.60;99.90;;;;;;5074523;28;20064;-67
2023/01/02 05:16:55;;;;;;;0.30;0.30;;;11.50;99.90;;;;;;5075367;28;20028;-67
2023/01/02 05:19:21;;;;;;;0.30;0.30;;;11.50;99.90;;;;;;5075392;28;20032;-66
2023/01/02 05:24:31;;;;;;;1.00;1.00;;;11.40;99.90;;;;;;5074469;28;20079;-66
2023/01/02 05:26:56;;;;;;;0.30;0.30;;;11.20;99.90;;;;;;5074191;28;20438;-66
2023/01/02 05:29:22;;;;;;;0.20;0.20;;;11.20;99.90;;;;;;5074123;28;20052;-67
2023/01/02 05:31:48;;;;;;;0.30;0.30;;;11.10;99.90;;;;;;5074008;28;20017;-66
2023/01/02 05:34:14;;;;;;;0.20;0.20;;;11.00;99.90;;;;;;5074038;28;20028;-66
2023/01/02 05:36:40;;;;;;;0.20;0.20;;;10.90;99.90;;;;;;5074014;28;20056;-66
2023/01/02 05:39:13;;;;;;;0.30;0.30;;;10.80;99.90;;;;;;5072603;28;20052;-67
2023/01/02 05:41:42;;;;;;;0.30;0.30;;;10.80;99.90;;;;;;5073878;28;20028;-67
2023/01/02 05:44:09;;;;;;;0.30;0.30;;;10.70;99.90;;;;;;5072363;28;20082;-66
2023/01/02 05:46:36;;;;;;;0.22;0.22;;;10.70;99.90;;;;;;5074014;28;20128;-66
2023/01/02 05:49:09;;;;;;;0.20;0.20;;;10.70;99.90;;;;;;5073935;28;20107;-66
2023/01/02 05:51:35;;;;;;;0.30;0.30;;;10.70;99.90;;;;;;5073689;28;20029;-66
2023/01/02 05:54:01;;;;;;;0.20;0.20;;;10.70;99.90;;;;;;5073805;28;20024;-66
2023/01/02 05:56:28;;;;;;;0.20;0.20;;;10.60;99.90;;;;;;5073693;28;20024;-66
2023/01/02 05:58:54;;;;;;;0.30;0.30;;;10.60;99.90;;;;;;5073638;28;20029;-66
2023/01/02 06:01:22;;;;;;;0.20;0.20;;;10.60;99.90;;;;;;5073595;28;20028;-66
2023/01/02 06:03:54;;;;;;;0.25;0.25;;;10.60;99.90;;;;;;5072808;28;20029;-67
2023/01/02 06:06:22;;;;;;;0.25;0.25;;;10.60;99.90;;;;;;5073420;28;20060;-66
2023/01/02 06:08:48;;;;;;;0.20;0.20;;;10.60;99.90;;;;;;5073474;28;20025;-66
2023/01/02 06:11:14;;;;;;;0.30;0.30;;;10.60;99.90;;;;;;5073534;28;20388;-66
2023/01/02 06:13:39;;;;;;;0.20;0.20;;;10.70;99.90;;;;;;5072991;28;20056;-66
2023/01/02 06:16:08;;;;;;;0.55;0.55;;;10.70;99.90;;;;;;5073352;28;20035;-66
2023/01/02 06:18:35;;;;;;;0.20;0.20;;;10.70;99.90;;;;;;5073304;28;20377;-66
2023/01/02 06:21:03;;;;;;;0.30;0.30;;;10.70;99.90;;;;;;5073198;28;20024;-66
2023/01/02 06:23:28;;;;;;;0.20;0.20;;;10.70;99.90;;;;;;5073055;28;20032;-66
2023/01/02 06:25:54;;;;;;;0.20;0.20;;;10.80;99.90;;;;;;5072957;28;20037;-67
2023/01/02 06:28:21;;;;;;;0.28;0.28;;;10.80;99.90;;;;;;5073113;28;20369;-66
2023/01/02 06:30:46;;;;;;;0.30;0.30;;;10.80;99.90;;;;;;5073057;28;20031;-66
2023/01/02 06:33:12;;;;;;;0.20;0.20;;;10.80;99.90;;;;;;5072812;28;20021;-65
2023/01/02 06:35:38;;;;;;;0.30;0.30;;;10.70;99.90;;;;;;5071520;28;20024;-65
2023/01/02 06:38:03;;;;;;;0.30;0.30;;;10.70;99.90;;;;;;5072900;28;20052;-65
2023/01/02 06:40:29;;;;;;;0.30;0.30;;;10.80;99.90;;;;;;5072651;28;20496;-65
2023/01/02 06:42:55;;;;;;;0.30;0.30;;;10.80;99.90;;;;;;5073073;28;20024;-65
2023/01/02 06:45:22;;;;;;;0.30;0.30;;;10.80;99.90;;;;;;5072448;28;20488;-65
2023/01/02 06:47:54;;;;;;;0.30;0.30;;;10.90;99.90;;;;;;5066852;28;20016;-65
2023/01/02 06:50:21;;;;;;;0.20;0.20;;;10.90;99.90;;;;;;5060476;28;20432;-65
2023/01/02 06:52:47;;;;;;;0.20;0.20;;;11.00;99.90;;;;;;5052592;28;20049;-65
2023/01/02 06:55:12;;;;;;;0.28;0.28;;;10.90;99.90;;;;;;5070977;28;20117;-65
2023/01/02 06:57:38;;;;;;;0.22;0.22;;;10.90;99.90;;;;;;5072539;28;20039;-65
2023/01/02 07:00:04;;;;;;;0.20;0.20;;;10.90;99.90;;;;;;5072519;28;20577;-65
2023/01/02 07:02:30;;;;;;;0.22;0.22;;;10.80;99.90;;;;;;5072474;28;20059;-65
2023/01/02 07:04:56;;;;;;;0.30;0.30;;;10.80;99.90;;;;;;5071299;28;20440;-65
2023/01/02 07:07:21;;;;;;;0.30;0.30;;;10.80;99.90;;;;;;5053651;28;20021;-66
2023/01/02 07:09:48;;;;;;;0.30;0.30;;;10.80;99.90;;;;;;5052015;28;20100;-65
2023/01/02 07:12:13;;;;;;;0.20;0.20;;;10.90;99.90;;;;;;5062846;28;20020;-66
2023/01/02 07:14:39;;;;;;;0.20;0.20;;;10.90;99.90;;;;;;5068914;28;20109;-64
2023/01/02 07:17:04;;;;;;;0.22;0.22;;;11.00;99.90;;;;;;5072400;28;20024;-65
2023/01/02 07:19:30;;;;;;;0.28;0.28;;;11.00;99.90;;;;;;5073213;28;20021;-64
2023/01/02 07:21:56;;;;;;;0.30;0.30;;;11.10;99.90;;;;;;5064220;28;20120;-66
2023/01/02 07:24:21;;;;;;;0.20;0.20;;;11.10;99.90;;;;;;5051712;28;20044;-66
2023/01/02 07:26:47;;;;;;;0.30;0.30;;;11.10;99.90;;;;;;5053905;28;20035;-67
2023/01/02 07:29:12;;;;;;;0.30;0.30;;;11.10;99.90;;;;;;5072008;28;20033;-68
2023/01/02 07:31:38;;;;;;;0.30;0.30;;;11.10;99.90;;;;;;5071272;28;20040;-66
2023/01/02 07:34:04;;;;;;;0.30;0.30;;;11.10;99.90;;;;;;5071568;28;20059;-67
2023/01/02 07:36:29;;;;;;;0.30;0.30;;;11.10;99.90;;;;;;5071727;28;20032;-67
2023/01/02 07:38:56;;;;;;;0.20;0.20;;;11.20;99.90;;;;;;5071252;28;20016;-66
2023/01/02 07:41:24;;;;;;;0.20;0.20;;;11.20;99.90;;;;;;5071578;28;20081;-67
2023/01/02 07:43:52;;;;;;;0.20;0.20;;;11.10;99.90;;;;;;5052006;28;20021;-66
2023/01/02 07:46:18;;;;;;;0.28;0.28;;;11.10;99.90;;;;;;5051407;28;20481;-66
2023/01/02 07:48:44;;;;;;;0.30;0.30;;;11.10;99.90;;;;;;5050367;28;20021;-65
2023/01/02 07:51:11;;;;;;;1.67;1.65;;;11.10;99.90;;;;;;5051563;28;20513;-66
2023/01/02 07:53:37;;;;;;;0.30;0.30;;;11.20;99.90;;;;;;5051512;28;20025;-65
2023/01/02 07:56:04;;;;;;;0.20;0.20;;;11.20;99.90;;;;;;5051863;28;20428;-65
2023/01/02 07:58:30;;;;;;;0.20;0.20;;;11.20;99.90;;;;;;5051436;28;20420;-66
2023/01/02 08:00:58;;;;;;;0.30;0.30;;;11.30;99.90;;;;;;5051229;28;20035;-66
2023/01/02 08:03:24;;;;;;;0.20;0.20;;;11.30;99.90;;;;;;5051233;28;20570;-66
2023/01/02 08:05:50;;;;;;;0.20;0.20;;;11.30;99.90;;;;;;5051136;28;20124;-66
2023/01/02 08:08:16;;;;;;;0.20;0.20;;;11.30;99.90;;;;;;5051472;28;20032;-65
2023/01/02 08:10:41;;;;;;;2.05;0.98;;;11.30;99.90;;;;;;5051370;28;20051;-66
2023/01/02 08:13:07;;;;;;;0.90;0.90;;;11.30;99.90;;;;;;5051651;28;20493;-66
2023/01/02 08:15:33;;;;;;;0.32;0.32;;;11.30;99.90;;;;;;5051085;28;20036;-67
2023/01/02 08:17:59;;;;;;;0.20;0.20;;;11.30;99.90;;;;;;5051136;28;20027;-66
2023/01/02 08:20:25;;;;;;;0.20;0.20;;;11.30;99.90;;;;;;5052440;28;20116;-66
2023/01/02 08:22:51;;;;;;;0.30;0.30;;;11.30;99.90;;;;;;5056289;28;20373;-67
2023/01/02 08:25:17;;;;;;;0.20;0.20;;;11.30;99.90;;;;;;5058860;28;20029;-67
2023/01/02 08:27:43;;;;;;;0.60;0.60;;;11.30;99.90;;;;;;5053207;28;20116;-68
2023/01/02 08:30:10;;;;;;;0.30;0.30;;;11.40;99.90;;;;;;5050841;28;20111;-66
2023/01/02 08:32:37;;;;;;;0.25;0.25;;;11.40;99.90;;;;;;5051097;28;20021;-66
2023/01/02 08:35:03;;;;;;;0.28;0.28;;;11.50;99.90;;;;;;5050795;28;20033;-67
2023/01/02 08:37:29;;;;;;;0.20;0.20;;;11.50;99.90;;;;;;5056818;28;20028;-65
2023/01/02 08:39:55;;;;;;;0.20;0.20;;;11.50;99.90;;;;;;5063282;28;20469;-64
2023/01/02 08:42:20;;;;;;;0.20;0.20;;;11.50;99.90;;;;;;5051018;28;20021;-65
2023/01/02 08:44:46;;;;;;;0.30;0.30;;;11.50;99.90;;;;;;5050767;28;20029;-65
2023/01/02 08:47:12;;;;;;;0.30;0.30;;;11.60;99.90;;;;;;5050876;28;20040;-65
2023/01/02 08:49:37;;;;;;;0.20;0.20;;;11.60;99.90;;;;;;5050839;28;20466;-65
2023/01/02 08:52:03;;;;;;;0.20;0.20;;;11.60;99.90;;;;;;5050944;28;20021;-65
2023/01/02 08:54:29;;;;;;;0.30;0.30;;;11.60;99.90;;;;;;5059303;28;20032;-64
2023/01/02 08:56:54;;;;;;;0.30;0.30;;;11.60;99.90;;;;;;5066671;28;20064;-64
2023/01/02 08:59:23;;;;;;;0.20;0.20;;;11.50;99.90;;;;;;5051306;28;20017;-69
2023/01/02 09:01:49;;;;;;;0.28;0.28;;;11.40;99.90;;;;;;5062621;28;20166;-67
2023/01/02 09:04:15;;;;;;;0.30;0.30;;;11.30;99.90;;;;;;5070564;28;20025;-68
2023/01/02 09:06:42;;;;;;;0.50;0.50;;;11.20;99.90;;;;;;5070629;28;20077;-69
2023/01/02 09:09:09;;;;;;;0.30;0.30;;;11.20;99.90;;;;;;5058523;28;20029;-68
2023/01/02 09:11:37;;;;;;;0.20;0.20;;;11.20;99.90;;;;;;5050744;28;20032;-68
2023/01/02 09:14:04;;;;;;;0.40;0.40;;;11.20;99.90;;;;;;5049978;28;20079;-70
2023/01/02 09:16:30;;;;;;;0.20;0.20;;;11.20;99.90;;;;;;5052698;28;20086;-67
2023/01/02 09:18:57;;;;;;;0.30;0.30;;;11.30;99.90;;;;;;5051264;28;20082;-65
2023/01/02 09:21:23;;;;;;;1.52;1.42;;;11.30;99.90;;;;;;5056220;28;20043;-63
2023/01/02 09:23:49;;;;;;;0.30;0.30;;;11.30;99.90;;;;;;5061195;28;20503;-65
2023/01/02 09:26:15;;;;;;;0.20;0.20;;;11.40;99.90;;;;;;5054200;28;20032;-64
2023/01/02 09:28:41;;;;;;;0.20;0.20;;;11.40;99.90;;;;;;5059691;28;20020;-64
2023/01/02 09:31:13;;;;;;;0.20;0.20;;;11.40;99.90;;;;;;5054843;28;20036;-65
2023/01/02 09:33:41;;;;;;;0.20;0.20;;;11.40;99.90;;;;;;5048596;28;20108;-64
2023/01/02 09:36:09;;;;;;;0.30;0.30;;;11.40;99.90;;;;;;5049697;28;20109;-64
2023/01/02 09:38:34;;;;;;;0.20;0.20;;;11.30;99.90;;;;;;5050241;28;20048;-64
2023/01/02 09:41:09;;;;;;;0.80;0.80;;;11.30;99.90;;;;;;5053251;28;20071;-62
2023/01/02 09:43:44;;;;;;;0.20;0.20;;;11.20;99.90;;;;;;5063443;28;20546;-64
2023/01/02 09:46:29;;;;;;;0.30;0.30;;;11.20;99.90;;;;;;5074869;28;20041;-67
2023/01/02 09:48:55;;;;;;;0.30;0.30;;;11.10;99.90;;;;;;5066705;28;20016;-66
2023/01/02 09:51:21;;;;;;;0.30;0.30;;;11.00;99.90;;;;;;5059041;28;20020;-68
2023/01/02 09:53:47;;;;;;;0.25;0.25;;;11.10;99.90;;;;;;5064475;28;20070;-67
2023/01/02 09:56:36;;;;;;;0.20;0.20;;;10.80;99.90;;;;;;5070936;28;20189;-65
2023/01/02 09:59:22;;;;;;;0.30;0.30;;;10.80;99.90;;;;;;5063511;28;20044;-67
2023/01/02 10:02:06;;;;;;;0.30;0.30;;;10.60;99.90;;;;;;5053642;28;20067;-67
2023/01/02 10:05:09;;;;;;;0.25;0.25;;;10.60;99.90;;;;;;5060485;28;20411;-67
2023/01/02 10:07:49;;;;;;;0.20;0.20;;;10.50;99.90;;;;;;5064454;28;20033;-67
2023/01/02 10:10:20;;;;;;;0.20;0.20;;;10.90;99.90;;;;;;5065934;28;20146;-69
2023/01/02 10:13:03;;;;;;;0.30;0.30;;;10.50;99.90;;;;;;5062621;28;20093;-67
2023/01/02 10:15:30;;;;;;;0.25;0.25;;;10.40;99.90;;;;;;5061548;28;20028;-68
2023/01/02 10:18:01;;;;;;;0.20;0.20;;;10.40;99.90;;;;;;5072351;28;20405;-67
2023/01/02 10:20:37;;;;;;;0.20;0.20;;;10.40;99.90;;;;;;5068441;28;20139;-66
2023/01/02 10:23:11;;;;;;;0.20;0.20;;;10.30;99.90;;;;;;5070088;28;20416;-66
2023/01/02 10:25:45;;;;;;;0.30;0.30;;;10.30;99.90;;;;;;5051165;28;20044;-67
2023/01/02 10:28:27;;;;;;;0.30;0.30;;;10.30;99.90;;;;;;5059191;28;20085;-66
2023/01/02 10:31:42;;;;;;;0.27;0.27;;;10.30;99.90;;;;;;5071695;28;20493;-67
2023/01/02 10:34:15;;;;;;;0.20;0.20;;;10.40;99.90;;;;;;5052454;28;20040;-67
2023/01/02 10:36:43;;;;;;;0.68;0.68;;;10.30;99.90;;;;;;5062357;28;20028;-67
2023/01/02 10:39:21;;;;;;;0.20;0.20;;;10.30;99.90;;;;;;5056283;28;20027;-67
2023/01/02 10:41:50;;;;;;;0.20;0.20;;;10.30;99.90;;;;;;5054968;28;20021;-67
2023/01/02 10:44:22;;;;;;;0.30;0.30;;;10.40;99.90;;;;;;5066101;28;20448;-67
2023/01/02 10:46:47;;;;;;;0.30;0.30;;;10.40;99.90;;;;;;5064254;28;20032;-64
2023/01/02 10:49:15;;;;;;;0.30;0.30;;;10.40;99.90;;;;;;5059445;28;20033;-63
2023/01/02 10:52:01;;;;;;;0.30;0.30;;;10.40;99.90;;;;;;5052173;28;20037;-64
2023/01/02 10:54:27;;;;;;;0.30;0.30;;;10.40;99.90;;;;;;5055950;28;20029;-63
2023/01/02 10:56:53;;;;;;;0.30;0.30;;;10.40;99.90;;;;;;5056908;28;20035;-64
2023/01/02 10:59:23;;;;;;;0.28;0.28;;;10.40;99.90;;;;;;5051379;28;20025;-61
2023/01/02 11:01:58;;;;;;;0.30;0.30;;;10.40;99.90;;;;;;5067972;28;20425;-63
2023/01/02 11:04:27;;;;;;;0.30;0.30;;;10.40;99.90;;;;;;5071566;28;20174;-62
2023/01/02 11:06:56;;;;;;;0.30;0.30;;;10.40;99.90;;;;;;5071234;28;20031;-63
2023/01/02 11:09:25;;;;;;;0.30;0.30;;;10.40;99.90;;;;;;5069714;28;20111;-62
2023/01/02 11:12:10;;;;;;;0.30;0.30;;;10.40;99.90;;;;;;5071875;28;20031;-64
2023/01/02 11:14:36;;;;;;;0.35;0.35;;;10.40;99.90;;;;;;5071633;28;20044;-66
2023/01/02 11:17:07;;;;;;;0.30;0.30;;;10.40;99.90;;;;;;5059442;28;20056;-63
2023/01/02 11:19:40;;;;;;;1.85;1.75;;;10.40;99.90;;;;;;5072044;28;20094;-63
2023/01/02 11:22:11;;;;;;;1.50;1.40;;;10.40;99.90;;;;;;5071899;28;20052;-62
2023/01/02 11:25:01;;;;;;;0.30;0.30;;;10.40;99.90;;;;;;5067204;28;20020;-62
2023/01/02 11:27:32;;;;;;;0.30;0.30;;;10.50;99.90;;;;;;5063268;28;20394;-62
2023/01/02 11:29:59;;;;;;;0.30;0.30;;;10.60;99.90;;;;;;5060708;28;20027;-61
2023/01/02 11:32:28;;;;;;;0.20;0.20;;;10.60;99.90;;;;;;5066466;28;20036;-62
2023/01/02 11:35:01;;;;;;;0.30;0.30;;;10.60;99.90;;;;;;5052440;28;20040;-61
2023/01/02 11:37:28;;;;;;;0.30;0.30;;;10.60;99.90;;;;;;5066825;28;20036;-63
2023/01/02 11:40:01;;;;;;;0.30;0.30;;;10.60;99.90;;;;;;5071464;28;20032;-61
2023/01/02 11:45:25;;;;;;;0.20;0.20;;;10.60;99.90;;;;;;5071525;28;20047;-63
2023/01/02 11:48:01;;;;;;;0.20;0.20;;;10.60;99.90;;;;;;5060693;28;20074;-63
2023/01/02 11:50:33;;;;;;;0.30;0.30;;;10.60;99.90;;;;;;5058245;28;20541;-62
2023/01/02 11:53:11;;;;;;;0.30;0.30;;;10.60;99.90;;;;;;5057591;28;20025;-62
2023/01/02 11:55:57;;;;;;;0.30;0.30;;;10.60;99.90;;;;;;5066467;28;20021;-62
2023/01/02 11:58:41;;;;;;;0.20;0.20;;;10.60;99.90;;;;;;5054451;28;20051;-62
2023/01/02 12:01:19;;;;;;;0.45;0.45;;;10.60;99.90;;;;;;5071189;28;20036;-62
2023/01/02 12:03:45;;;;;;;0.25;0.25;;;10.70;99.90;;;;;;5066679;28;20102;-62
2023/01/02 12:06:41;;;;;;;0.30;0.30;;;10.70;99.90;;;;;;5054156;28;20033;-62
2023/01/02 12:09:13;;;;;;;0.25;0.25;;;10.80;99.90;;;;;;5050860;28;20120;-62
2023/01/02 12:11:57;;;;;;;0.30;0.30;;;10.90;99.90;;;;;;5051200;28;20478;-61
2023/01/02 12:15:01;;;;;;;0.22;0.22;;;11.10;99.90;;;;;;5050024;28;20449;-62
2023/01/02 12:17:36;;;;;;;0.30;0.30;;;10.90;99.90;;;;;;5050139;28;20477;-62
2023/01/02 12:20:04;;;;;;;0.30;0.30;;;10.90;99.90;;;;;;5051066;28;20029;-61
2023/01/02 12:22:42;;;;;;;0.30;0.30;;;10.80;99.90;;;;;;5070222;28;20032;-62
2023/01/02 12:25:22;;;;;;;0.30;0.30;;;10.80;99.90;;;;;;5071168;28;20033;-61
2023/01/02 12:28:26;;;;;;;0.28;0.28;;;10.80;99.90;;;;;;5055413;28;20555;-62
2023/01/02 12:31:21;;;;;;;0.30;0.30;;;11.00;99.90;;;;;;5051983;28;20115;-61
2023/01/02 12:33:52;;;;;;;0.20;0.20;;;11.10;99.90;;;;;;5068561;28;20043;-61
2023/01/02 12:36:42;;;;;;;9.15;3.67;;;11.90;99.90;;;;;;5063742;28;20432;-61
2023/01/02 12:39:39;;;;;;;0.20;0.20;;;12.00;99.90;;;;;;5067696;28;20020;-61
2023/01/02 12:42:22;;;;;;;0.30;0.30;;;12.50;99.90;;;;;;5066470;28;20146;-61
2023/01/02 12:44:54;;;;;;;0.20;0.20;;;13.00;99.90;;;;;;5069316;28;20044;-61
2023/01/02 12:47:28;;;;;;;0.30;0.30;;;13.10;99.90;;;;;;5070930;28;20077;-61
2023/01/02 12:50:03;;;;;;;0.30;0.30;;;13.20;99.90;;;;;;5070380;28;20028;-60
2023/01/02 12:52:41;;;;;;;0.20;0.20;;;13.50;99.90;;;;;;5066950;28;20162;-61
2023/01/02 12:55:25;;;;;;;0.38;0.38;;;13.70;99.90;;;;;;5064908;28;20032;-61
2023/01/02 12:58:00;;;;;;;0.20;0.20;;;13.80;99.90;;;;;;5067749;28;20024;-61
2023/01/02 13:01:13;;;;;;;0.30;0.30;;;13.70;99.90;;;;;;5054693;28;20074;-61
2023/01/02 13:03:41;;;;;;;0.45;0.45;;;13.50;99.90;;;;;;5042657;28;20037;-61
2023/01/02 13:06:16;;;;;;;0.20;0.20;;;13.50;99.90;;;;;;5070480;28;20029;-61
2023/01/02 13:08:54;;;;;;;0.20;0.20;;;14.00;99.90;;;;;;5050612;28;20025;-61
2023/01/02 13:11:39;;;;;;;0.20;0.20;;;13.40;99.90;;;;;;5058940;28;20032;-61
2023/01/02 13:14:06;;;;;;;0.22;0.22;;;13.30;99.90;;;;;;5052194;28;20136;-61